Portada
METAR-TAF:

METAR-TAF

Aeroports :

Changsha, Xina

latitud: 28-11N, longitud: 113-13E, altitud: 66 m

Observació

L'informe es va fer fa 37 minuts, a les 22:00 UTC
Vent 6 kt del Nord/Nord-Oest
Temperatura 13°C
Humitat 100%
Pressió 1022 hPa
Visibilitat: 3700 m
Cel ennuvolat a una alçada de 600 ft
Cel cobert a una alçada de 5000 ft
boirina

METAR: ZGHA 262200Z 34003MPS 3700 BR BKN006 OVC050 13/13 Q1022 BECMG TL2300 2900

Hora: 06:37 (22:37 UTC)

Pronòstic

L'informe es va fer fa 8 hores i 1 minuts, a les 14:36 UTC
Pronòstic vàlid del 26 a les 18 UTC al 27 a les 18 UTC
Vent 8 kt del Nord
Visibilitat: 4000 m
Núvols disperses a una alçada de 1100 ft
Cel cobert a una alçada de 5000 ft
boirina
Evolucionant progressivament
l' 26 a les 22 UTC al 26 a les 23 UTC
Visibilitat: 2500 m
Evolucionant progressivament
l' 27 a les 00 UTC al 27 a les 01 UTC
Visibilitat: 4000 m

TAF: ZGHA 261436Z 2618/2718 35004MPS 4000 BR SCT011 OVC050 TX16/2707Z TN12/2622Z BECMG 2622/2623 2500 BECMG 2700/2701 4000

Observacions i pronòstics meteorològics de més de 4000 aeroports (METAR i TAF).

Les estacions disponibles són els punts grocs i vermells al mapa.

Posi el ratolí al punt desitjat per veure el nom de l'estació.

Feu clic per veure les observacions i els pronòstics meteorològics.

Per canviar el mapa: feu clic els botons verds amb una creu de color negre per apropar; al botó verd amb un guió per allunyar la imatge; o en les fletxes verdes per a mapes adjacents.


METAR-TAF: